Anne Sibum — C4YC2 — position and weather

sailwx.info

Track history (hours):
 
Tides and Currents Weather Stations Pressure Air Temp Water Temp Dewpoint Dewpoint Depression Visibility Wind Speed Wind Dir Waves Ship Positions

Anne Sibum

Last reported at 2017-Jan-21 21:30 UTC. Time now 2017-Jan-21 23:49 UTC.
Position N 53°21' W 006°02'.

; draft 6.3 m.

Type: Ship (hazmat cat A). MMSI: 209322000.

Date/timePositionNaut miles runAvg speedWind from/ knotsBaromVisibWave heightAir tempDewpointWater temp
2017-Jan-21 21:30N 53°21' W 006°02'7417.2
2017-Jan-21 17:12N 53°34' W 003°59'1117.0
2017-Jan-21 16:33N 53°34' W 003°41'1615.6
2017-Jan-21 15:33N 53°31' W 003°15'9 8.7
2017-Jan-21 14:33N 53°27' W 003°02'1 0.6
2017-Jan-21 13:29N 53°27' W 003°01'1 0.6
2017-Jan-21 12:32N 53°28' W 003°01'0 0.0
2017-Jan-21 11:32N 53°28' W 003°01'0 0.0
2017-Jan-21 10:26N 53°28' W 003°01'0 0.0
2017-Jan-21 09:32N 53°28' W 003°01'0 0.0
2017-Jan-21 08:29N 53°28' W 003°01'0 0.0
2017-Jan-21 07:32N 53°28' W 003°01'0 0.0
2017-Jan-21 06:32N 53°28' W 003°01'0 0.0
2017-Jan-21 05:29N 53°28' W 003°01'0 0.0
2017-Jan-21 04:32N 53°28' W 003°01'0 0.0
2017-Jan-21 03:29N 53°28' W 003°01'0 0.0
2017-Jan-21 02:32N 53°28' W 003°01'0 0.0
2017-Jan-21 01:32N 53°28' W 003°01'0 0.0
2017-Jan-21 00:26N 53°28' W 003°01'0 0.0
2017-Jan-20 23:32N 53°28' W 003°01'0 0.0
2017-Jan-20 22:32N 53°28' W 003°01'0 0.0
2017-Jan-20 21:32N 53°28' W 003°01'0 0.0
2017-Jan-20 20:32N 53°28' W 003°01'0 0.0
2017-Jan-20 19:32N 53°28' W 003°01'0 0.0
2017-Jan-20 18:33N 53°28' W 003°01'0 0.0
2017-Jan-20 17:33N 53°28' W 003°01'0 0.0
2017-Jan-20 16:33N 53°28' W 003°01'0 0.0
2017-Jan-20 15:33N 53°28' W 003°01'0 0.0
2017-Jan-20 14:33N 53°28' W 003°01'0 0.2
2017-Jan-20 13:33N 53°28' W 003°01'1 0.8
2017-Jan-20 12:33N 53°27' W 003°01'3 2.8
2017-Jan-20 11:33N 53°29' W 003°05'9 8.9
2017-Jan-20 10:33N 53°31' W 003°19'7 7.2
2017-Jan-20 09:33N 53°31' W 003°31'1111.3
2017-Jan-20 08:33N 53°32' W 003°50'1412.3
2017-Jan-20 07:23N 53°40' W 004°09'2111.5
2017-Jan-20 05:33N 53°53' W 004°38'1312.1
2017-Jan-20 04:31N 54°01' W 004°54'1212.2
2017-Jan-20 03:33N 54°12' W 005°03'1212.5
2017-Jan-20 02:33N 54°23' W 005°12'1313.5
2017-Jan-20 01:33N 54°35' W 005°22'1211.7
2017-Jan-20 00:33N 54°42' W 005°38'10 9.6
2017-Jan-19 23:33N 54°38' W 005°53'0 0.0
2017-Jan-19 18:31N 54°38' W 005°53'0 0.0
2017-Jan-19 07:29N 54°38' W 005°53'0 0.3
2017-Jan-19 06:33N 54°38' W 005°53'10 9.6
2017-Jan-19 05:33N 54°43' W 005°38'8 7.9
2017-Jan-19 04:34N 54°40' W 005°25'1110.7
2017-Jan-19 03:34N 54°30' W 005°21'1212.2
2017-Jan-19 02:34N 54°18' W 005°20'1413.8
2017-Jan-19 01:33N 54°04' W 005°22'2914.5
2017-Jan-18 23:32N 53°35' W 005°30'8914.7
2017-Jan-18 17:32N 52°07' W 005°43'6415.5
2017-Jan-18 13:25N 51°03' W 005°53'3315.8
2017-Jan-18 11:21N 50°30' W 005°53'1315.7
2017-Jan-18 10:30N 50°17' W 005°53'1515.5
2017-Jan-18 09:31N 50°02' W 005°54'1513.6
2017-Jan-18 08:23N 49°57' W 005°31'1213.9
2017-Jan-18 07:33N 49°55' W 005°13'1414.3
2017-Jan-18 06:33N 49°58' W 004°51'1514.9
2017-Jan-18 05:33N 50°00' W 004°28'1615.5
2017-Jan-18 04:33N 50°03' W 004°05'1616.0
2017-Jan-18 03:34N 50°06' W 003°40'1615.8
2017-Jan-18 02:34N 50°09' W 003°16'1514.9
2017-Jan-18 01:32N 50°12' W 002°53'1413.8
2017-Jan-18 00:33N 50°14' W 002°32'1612.5
2017-Jan-17 23:16N 50°17' W 002°07'1312.2
2017-Jan-17 22:13N 50°20' W 001°48'912.5
2017-Jan-17 21:28N 50°22' W 001°33'1613.5
2017-Jan-17 20:19N 50°24' W 001°09'1614.9
2017-Jan-17 19:14N 50°26' W 000°44'1216.0
2017-Jan-17 18:28N 50°29' W 000°25'1415.8
2017-Jan-17 17:34N 50°31' W 000°03'1716.9
2017-Jan-17 16:33N 50°36' E 000°22'1616.2
2017-Jan-17 15:33N 50°43' E 000°45'1515.0
2017-Jan-17 14:33N 50°52' E 001°05'1414.5
2017-Jan-17 13:33N 51°01' E 001°22'1616.2
2017-Jan-17 12:33N 51°12' E 001°42'1817.9
2017-Jan-17 11:34N 51°26' E 001°58'1818.0
2017-Jan-17 10:34N 51°40' E 002°18'1917.2
2017-Jan-17 09:29N 51°53' E 002°38'1616.3
2017-Jan-17 08:31N 52°02' E 002°59'1616.7
2017-Jan-17 07:33N 52°03' E 003°25'1615.9
2017-Jan-17 06:33N 52°03' E 003°51'1010.3
2017-Jan-17 05:34N 51°58' E 004°05'3 3.0
2017-Jan-17 04:33N 51°57' E 004°00'0 0.0
2017-Jan-17 03:33N 51°57' E 004°00'0 0.0
2017-Jan-17 02:33N 51°57' E 004°00'0 0.0
2017-Jan-17 01:33N 51°57' E 004°00'0 0.0
2017-Jan-17 00:33N 51°57' E 004°00'0 0.0
2017-Jan-16 23:33N 51°57' E 004°00'0 0.0
2017-Jan-16 22:33N 51°57' E 004°00'0 0.0
2017-Jan-16 21:33N 51°57' E 004°00'0 0.0
2017-Jan-16 20:34N 51°57' E 004°00'3 2.8
2017-Jan-16 19:33N 51°57' E 004°05'1 0.6
2017-Jan-16 18:33N 51°57' E 004°04'0 0.0
2017-Jan-16 17:30N 51°57' E 004°04'0 0.0
2017-Jan-16 16:33N 51°57' E 004°04'0 0.0
2017-Jan-16 15:33N 51°57' E 004°04'0 0.0
2017-Jan-16 14:30N 51°57' E 004°04'0 0.0
2017-Jan-16 13:32N 51°57' E 004°04'0 0.0
2017-Jan-16 12:32N 51°57' E 004°04'0 0.0
2017-Jan-16 11:32N 51°57' E 004°04'0 0.0
2017-Jan-16 10:32N 51°57' E 004°04'0 0.0
2017-Jan-16 09:31N 51°57' E 004°04'0 0.0
2017-Jan-16 08:31N 51°57' E 004°04'0 0.0
2017-Jan-16 07:25N 51°57' E 004°04'0 0.0
2017-Jan-16 06:31N 51°57' E 004°04'0 0.0
2017-Jan-16 05:31N 51°57' E 004°04'0 0.1
2017-Jan-16 04:33N 51°57' E 004°04'1 0.9
2017-Jan-16 03:33N 51°58' E 004°03'0 0.0
2017-Jan-16 02:33N 51°58' E 004°03'0 0.0
2017-Jan-16 01:32N 51°58' E 004°03'0 0.0
2017-Jan-16 00:33N 51°58' E 004°03'0 0.0
2017-Jan-15 23:32N 51°58' E 004°03'0 0.0
2017-Jan-15 22:32N 51°58' E 004°03'0 0.0
2017-Jan-15 21:32N 51°58' E 004°03'0 0.0
2017-Jan-15 20:32N 51°58' E 004°03'0 0.0
2017-Jan-15 19:31N 51°58' E 004°03'1 0.9
2017-Jan-15 18:33N 51°58' E 004°02'0 0.3
2017-Jan-15 17:31N 51°59' E 004°02'0 0.0
2017-Jan-15 16:31N 51°59' E 004°02'0 0.0
2017-Jan-15 15:31N 51°59' E 004°02'0 0.0
2017-Jan-15 14:31N 51°59' E 004°02'0 0.0
2017-Jan-15 13:31N 51°59' E 004°02'0 0.0
2017-Jan-15 12:31N 51°59' E 004°02'1 1.0
2017-Jan-15 11:33N 51°58' E 004°03'1 0.6
2017-Jan-15 10:32N 51°57' E 004°03'0 0.0
2017-Jan-15 09:32N 51°57' E 004°03'0 0.0
2017-Jan-15 08:32N 51°57' E 004°03'0 0.0
2017-Jan-15 07:32N 51°57' E 004°03'0 0.0
2017-Jan-15 06:29N 51°57' E 004°03'0 0.0
2017-Jan-15 05:32N 51°57' E 004°03'0 0.0
2017-Jan-15 04:32N 51°57' E 004°03'0 0.0
2017-Jan-15 03:32N 51°57' E 004°03'0 0.0
2017-Jan-15 02:32N 51°57' E 004°03'0 0.0
2017-Jan-15 01:33N 51°57' E 004°03'0 0.0
2017-Jan-15 00:33N 51°57' E 004°03'0 0.0
2017-Jan-14 23:33N 51°57' E 004°03'3 3.2
2017-Jan-14 22:34N 51°58' E 004°08'1110.9
2017-Jan-14 21:34N 51°54' E 004°24'1 1.1
2017-Jan-14 20:30N 51°53' E 004°25'0 0.0
2017-Jan-14 19:33N 51°53' E 004°25'0 0.0
2017-Jan-14 18:33N 51°53' E 004°25'0 0.0
2017-Jan-14 17:30N 51°53' E 004°25'0 0.0
2017-Jan-14 16:33N 51°53' E 004°25'0 0.0
2017-Jan-14 15:32N 51°53' E 004°25'0 0.0
2017-Jan-14 14:32N 51°53' E 004°25'0 0.0
2017-Jan-14 13:32N 51°53' E 004°25'0 0.0
2017-Jan-14 12:32N 51°53' E 004°25'0 0.0
2017-Jan-14 11:32N 51°53' E 004°25'0 0.0
2017-Jan-14 10:32N 51°53' E 004°25'0 0.0
2017-Jan-14 09:32N 51°53' E 004°25'0 0.0
2017-Jan-14 08:32N 51°53' E 004°25'0 0.1
2017-Jan-14 07:33N 51°53' E 004°25'0 0.5
2017-Jan-14 06:33N 51°53' E 004°24'3 2.6
2017-Jan-14 05:33N 51°54' E 004°20'5 5.1
2017-Jan-14 04:33N 51°56' E 004°13'7 7.1
2017-Jan-14 03:33N 51°59' E 004°03'6314.2
2017-Jan-13 23:07N 51°38' E 002°28'813.5
2017-Jan-13 22:33N 51°32' E 002°19'1212.1
2017-Jan-13 21:33N 51°22' E 002°08'1111.2
2017-Jan-13 20:33N 51°12' E 002°01'1111.2
2017-Jan-13 19:33N 51°07' E 001°45'1111.3
2017-Jan-13 18:33N 50°59' E 001°32'6911.5
2017-Jan-13 12:33N 50°20' E 000°02'1312.5
2017-Jan-13 11:33N 50°18' W 000°18'3314.5
2017-Jan-13 09:18N 50°13' W 001°08'1216.0
2017-Jan-13 08:34N 50°12' W 001°27'1615.5
2017-Jan-13 07:33N 50°13' W 001°51'10115.8
2017-Jan-13 01:09N 49°59' W 004°28'915.0
2017-Jan-13 00:33N 49°58' W 004°41'1514.7
2017-Jan-12 23:33N 49°56' W 005°04'1413.7
2017-Jan-12 22:33N 49°55' W 005°25'12914.1
2017-Jan-12 13:24N 52°03' W 005°51'1619.3
2017-Jan-12 12:33N 52°20' W 005°48'11216.0
2017-Jan-12 05:33N 54°10' W 005°22'1615.7
2017-Jan-12 04:33N 54°26' W 005°20'1515.4
2017-Jan-12 03:33N 54°41' W 005°27'1312.9
2017-Jan-12 02:33N 54°40' W 005°49'  
Track history (hours):
 
Tides and Currents Weather Stations Pressure Air Temp Water Temp Dewpoint Dewpoint Depression Visibility Wind Speed Wind Dir Waves Ship Positions

Anne Sibum

Last reported at 2017-Jan-21 21:30 UTC. Time now 2017-Jan-21 23:49 UTC.
Position N 53°21' W 006°02'.

; draft 6.3 m.

Type: Ship (hazmat cat A). MMSI: 209322000.

Date/timePositionNaut miles runAvg speedWind from/ knotsBaromVisibWave heightAir tempDewpointWater temp
2017-Jan-21 21:30N 53°21' W 006°02'7417.2
2017-Jan-21 17:12N 53°34' W 003°59'1117.0
2017-Jan-21 16:33N 53°34' W 003°41'1615.6
2017-Jan-21 15:33N 53°31' W 003°15'9 8.7
2017-Jan-21 14:33N 53°27' W 003°02'1 0.6
2017-Jan-21 13:29N 53°27' W 003°01'1 0.6
2017-Jan-21 12:32N 53°28' W 003°01'0 0.0
2017-Jan-21 11:32N 53°28' W 003°01'0 0.0
2017-Jan-21 10:26N 53°28' W 003°01'0 0.0
2017-Jan-21 09:32N 53°28' W 003°01'0 0.0
2017-Jan-21 08:29N 53°28' W 003°01'0 0.0
2017-Jan-21 07:32N 53°28' W 003°01'0 0.0
2017-Jan-21 06:32N 53°28' W 003°01'0 0.0
2017-Jan-21 05:29N 53°28' W 003°01'0 0.0
2017-Jan-21 04:32N 53°28' W 003°01'0 0.0
2017-Jan-21 03:29N 53°28' W 003°01'0 0.0
2017-Jan-21 02:32N 53°28' W 003°01'0 0.0
2017-Jan-21 01:32N 53°28' W 003°01'0 0.0
2017-Jan-21 00:26N 53°28' W 003°01'0 0.0
2017-Jan-20 23:32N 53°28' W 003°01'0 0.0
2017-Jan-20 22:32N 53°28' W 003°01'0 0.0
2017-Jan-20 21:32N 53°28' W 003°01'0 0.0
2017-Jan-20 20:32N 53°28' W 003°01'0 0.0
2017-Jan-20 19:32N 53°28' W 003°01'0 0.0
2017-Jan-20 18:33N 53°28' W 003°01'0 0.0
2017-Jan-20 17:33N 53°28' W 003°01'0 0.0
2017-Jan-20 16:33N 53°28' W 003°01'0 0.0
2017-Jan-20 15:33N 53°28' W 003°01'0 0.0
2017-Jan-20 14:33N 53°28' W 003°01'0 0.2
2017-Jan-20 13:33N 53°28' W 003°01'1 0.8
2017-Jan-20 12:33N 53°27' W 003°01'3 2.8
2017-Jan-20 11:33N 53°29' W 003°05'9 8.9
2017-Jan-20 10:33N 53°31' W 003°19'7 7.2
2017-Jan-20 09:33N 53°31' W 003°31'1111.3
2017-Jan-20 08:33N 53°32' W 003°50'1412.3
2017-Jan-20 07:23N 53°40' W 004°09'2111.5
2017-Jan-20 05:33N 53°53' W 004°38'1312.1
2017-Jan-20 04:31N 54°01' W 004°54'1212.2
2017-Jan-20 03:33N 54°12' W 005°03'1212.5
2017-Jan-20 02:33N 54°23' W 005°12'1313.5
2017-Jan-20 01:33N 54°35' W 005°22'1211.7
2017-Jan-20 00:33N 54°42' W 005°38'10 9.6
2017-Jan-19 23:33N 54°38' W 005°53'0 0.0
2017-Jan-19 18:31N 54°38' W 005°53'0 0.0
2017-Jan-19 07:29N 54°38' W 005°53'0 0.3
2017-Jan-19 06:33N 54°38' W 005°53'10 9.6
2017-Jan-19 05:33N 54°43' W 005°38'8 7.9
2017-Jan-19 04:34N 54°40' W 005°25'1110.7
2017-Jan-19 03:34N 54°30' W 005°21'1212.2
2017-Jan-19 02:34N 54°18' W 005°20'1413.8
2017-Jan-19 01:33N 54°04' W 005°22'2914.5
2017-Jan-18 23:32N 53°35' W 005°30'8914.7
2017-Jan-18 17:32N 52°07' W 005°43'6415.5
2017-Jan-18 13:25N 51°03' W 005°53'3315.8
2017-Jan-18 11:21N 50°30' W 005°53'1315.7
2017-Jan-18 10:30N 50°17' W 005°53'1515.5
2017-Jan-18 09:31N 50°02' W 005°54'1513.6
2017-Jan-18 08:23N 49°57' W 005°31'1213.9
2017-Jan-18 07:33N 49°55' W 005°13'1414.3
2017-Jan-18 06:33N 49°58' W 004°51'1514.9
2017-Jan-18 05:33N 50°00' W 004°28'1615.5
2017-Jan-18 04:33N 50°03' W 004°05'1616.0
2017-Jan-18 03:34N 50°06' W 003°40'1615.8
2017-Jan-18 02:34N 50°09' W 003°16'1514.9
2017-Jan-18 01:32N 50°12' W 002°53'1413.8
2017-Jan-18 00:33N 50°14' W 002°32'1612.5
2017-Jan-17 23:16N 50°17' W 002°07'1312.2
2017-Jan-17 22:13N 50°20' W 001°48'912.5
2017-Jan-17 21:28N 50°22' W 001°33'1613.5
2017-Jan-17 20:19N 50°24' W 001°09'1614.9
2017-Jan-17 19:14N 50°26' W 000°44'1216.0
2017-Jan-17 18:28N 50°29' W 000°25'1415.8
2017-Jan-17 17:34N 50°31' W 000°03'1716.9
2017-Jan-17 16:33N 50°36' E 000°22'1616.2
2017-Jan-17 15:33N 50°43' E 000°45'1515.0
2017-Jan-17 14:33N 50°52' E 001°05'1414.5
2017-Jan-17 13:33N 51°01' E 001°22'1616.2
2017-Jan-17 12:33N 51°12' E 001°42'1817.9
2017-Jan-17 11:34N 51°26' E 001°58'1818.0
2017-Jan-17 10:34N 51°40' E 002°18'1917.2
2017-Jan-17 09:29N 51°53' E 002°38'1616.3
2017-Jan-17 08:31N 52°02' E 002°59'1616.7
2017-Jan-17 07:33N 52°03' E 003°25'1615.9
2017-Jan-17 06:33N 52°03' E 003°51'1010.3
2017-Jan-17 05:34N 51°58' E 004°05'3 3.0
2017-Jan-17 04:33N 51°57' E 004°00'0 0.0
2017-Jan-17 03:33N 51°57' E 004°00'0 0.0
2017-Jan-17 02:33N 51°57' E 004°00'0 0.0
2017-Jan-17 01:33N 51°57' E 004°00'0 0.0
2017-Jan-17 00:33N 51°57' E 004°00'0 0.0
2017-Jan-16 23:33N 51°57' E 004°00'0 0.0
2017-Jan-16 22:33N 51°57' E 004°00'0 0.0
2017-Jan-16 21:33N 51°57' E 004°00'0 0.0
2017-Jan-16 20:34N 51°57' E 004°00'3 2.8
2017-Jan-16 19:33N 51°57' E 004°05'1 0.6
2017-Jan-16 18:33N 51°57' E 004°04'0 0.0
2017-Jan-16 17:30N 51°57' E 004°04'0 0.0
2017-Jan-16 16:33N 51°57' E 004°04'0 0.0
2017-Jan-16 15:33N 51°57' E 004°04'0 0.0
2017-Jan-16 14:30N 51°57' E 004°04'0 0.0
2017-Jan-16 13:32N 51°57' E 004°04'0 0.0
2017-Jan-16 12:32N 51°57' E 004°04'0 0.0
2017-Jan-16 11:32N 51°57' E 004°04'0 0.0
2017-Jan-16 10:32N 51°57' E 004°04'0 0.0
2017-Jan-16 09:31N 51°57' E 004°04'0 0.0
2017-Jan-16 08:31N 51°57' E 004°04'0 0.0
2017-Jan-16 07:25N 51°57' E 004°04'0 0.0
2017-Jan-16 06:31N 51°57' E 004°04'0 0.0
2017-Jan-16 05:31N 51°57' E 004°04'0 0.1
2017-Jan-16 04:33N 51°57' E 004°04'1 0.9
2017-Jan-16 03:33N 51°58' E 004°03'0 0.0
2017-Jan-16 02:33N 51°58' E 004°03'0 0.0
2017-Jan-16 01:32N 51°58' E 004°03'0 0.0
2017-Jan-16 00:33N 51°58' E 004°03'0 0.0
2017-Jan-15 23:32N 51°58' E 004°03'0 0.0
2017-Jan-15 22:32N 51°58' E 004°03'0 0.0
2017-Jan-15 21:32N 51°58' E 004°03'0 0.0
2017-Jan-15 20:32N 51°58' E 004°03'0 0.0
2017-Jan-15 19:31N 51°58' E 004°03'1 0.9
2017-Jan-15 18:33N 51°58' E 004°02'0 0.3
2017-Jan-15 17:31N 51°59' E 004°02'0 0.0
2017-Jan-15 16:31N 51°59' E 004°02'0 0.0
2017-Jan-15 15:31N 51°59' E 004°02'0 0.0
2017-Jan-15 14:31N 51°59' E 004°02'0 0.0
2017-Jan-15 13:31N 51°59' E 004°02'0 0.0
2017-Jan-15 12:31N 51°59' E 004°02'1 1.0
2017-Jan-15 11:33N 51°58' E 004°03'1 0.6
2017-Jan-15 10:32N 51°57' E 004°03'0 0.0
2017-Jan-15 09:32N 51°57' E 004°03'0 0.0
2017-Jan-15 08:32N 51°57' E 004°03'0 0.0
2017-Jan-15 07:32N 51°57' E 004°03'0 0.0
2017-Jan-15 06:29N 51°57' E 004°03'0 0.0
2017-Jan-15 05:32N 51°57' E 004°03'0 0.0
2017-Jan-15 04:32N 51°57' E 004°03'0 0.0
2017-Jan-15 03:32N 51°57' E 004°03'0 0.0
2017-Jan-15 02:32N 51°57' E 004°03'0 0.0
2017-Jan-15 01:33N 51°57' E 004°03'0 0.0
2017-Jan-15 00:33N 51°57' E 004°03'0 0.0
2017-Jan-14 23:33N 51°57' E 004°03'3 3.2
2017-Jan-14 22:34N 51°58' E 004°08'1110.9
2017-Jan-14 21:34N 51°54' E 004°24'1 1.1
2017-Jan-14 20:30N 51°53' E 004°25'0 0.0
2017-Jan-14 19:33N 51°53' E 004°25'0 0.0
2017-Jan-14 18:33N 51°53' E 004°25'0 0.0
2017-Jan-14 17:30N 51°53' E 004°25'0 0.0
2017-Jan-14 16:33N 51°53' E 004°25'0 0.0
2017-Jan-14 15:32N 51°53' E 004°25'0 0.0
2017-Jan-14 14:32N 51°53' E 004°25'0 0.0
2017-Jan-14 13:32N 51°53' E 004°25'0 0.0
2017-Jan-14 12:32N 51°53' E 004°25'0 0.0
2017-Jan-14 11:32N 51°53' E 004°25'0 0.0
2017-Jan-14 10:32N 51°53' E 004°25'0 0.0
2017-Jan-14 09:32N 51°53' E 004°25'0 0.0
2017-Jan-14 08:32N 51°53' E 004°25'0 0.1
2017-Jan-14 07:33N 51°53' E 004°25'0 0.5
2017-Jan-14 06:33N 51°53' E 004°24'3 2.6
2017-Jan-14 05:33N 51°54' E 004°20'5 5.1
2017-Jan-14 04:33N 51°56' E 004°13'7 7.1
2017-Jan-14 03:33N 51°59' E 004°03'6314.2
2017-Jan-13 23:07N 51°38' E 002°28'813.5
2017-Jan-13 22:33N 51°32' E 002°19'1212.1
2017-Jan-13 21:33N 51°22' E 002°08'1111.2
2017-Jan-13 20:33N 51°12' E 002°01'1111.2
2017-Jan-13 19:33N 51°07' E 001°45'1111.3
2017-Jan-13 18:33N 50°59' E 001°32'6911.5
2017-Jan-13 12:33N 50°20' E 000°02'1312.5
2017-Jan-13 11:33N 50°18' W 000°18'3314.5
2017-Jan-13 09:18N 50°13' W 001°08'1216.0
2017-Jan-13 08:34N 50°12' W 001°27'1615.5
2017-Jan-13 07:33N 50°13' W 001°51'10115.8
2017-Jan-13 01:09N 49°59' W 004°28'915.0
2017-Jan-13 00:33N 49°58' W 004°41'1514.7
2017-Jan-12 23:33N 49°56' W 005°04'1413.7
2017-Jan-12 22:33N 49°55' W 005°25'12914.1
2017-Jan-12 13:24N 52°03' W 005°51'1619.3
2017-Jan-12 12:33N 52°20' W 005°48'11216.0
2017-Jan-12 05:33N 54°10' W 005°22'1615.7
2017-Jan-12 04:33N 54°26' W 005°20'1515.4
2017-Jan-12 03:33N 54°41' W 005°27'1312.9
2017-Jan-12 02:33N 54°40' W 005°49'  

Dump ship's entire track history